Chelsea Heart and Sole
Skip Navigation Links
Results
Details
Mobile Results
21 May 2016
Page 1 of 1 (48 items)
Pos
Race No
Fav
Share
Name
Net Time
Category
Cat Pos
Age
Gen Pos
City
Pace
1753Dan Klein00:37:08Overall1511 22.3 m/hr
2743Jerry Draper00:37:3040-491452 22.1 m/hr
3758Josh Evans00:39:0840-492433 21.1 m/hr
4731Samuel Smith00:39:2240-493404Rd21.0 m/hr
5714Bryan Andrews00:41:0040-494405Gregory20.2 m/hr
6754Don Campbell00:41:0360-691686 20.1 m/hr
7727Nicole Derrick00:41:10Overall1451Royal Oak20.1 m/hr
8719Anthony Loe00:46:1050-591547Grass Lake17.9 m/hr
9726Damian Badish00:46:4650-592518Gregory17.6 m/hr
10752Davit Burkhead-Weiner00:46:5330-391302 17.6 m/hr
11749Tatiana Anthony00:47:1730-392383 17.5 m/hr
12760Barry Snellgrove00:48:1750-593589 17.1 m/hr
13733Benjamin Nabozny00:49:5430-3913210Whitmore Lake16.4 m/hr
14761Sarah Nally00:50:1630-393364Jackson16.4 m/hr
15741Guillaume Coussement00:50:1940-4954611Chelsea16.4 m/hr
16739Michael Glass00:50:3260-6926512Ypsilanti16.4 m/hr
17715Jaron Iannelli00:50:2814-1911413Chelsea16.3 m/hr
18732Ana Hotaling00:51:0750-591505Chelsea16.2 m/hr
19736Julie Soriano00:51:2650-592506Dexter16.0 m/hr
20712Christopher Zurenko00:53:4630-3923814Chelsea15.3 m/hr
21756Jeff Morgan00:55:0930-3933615 15.0 m/hr
22725Maurice Collins00:55:1130-3943916Dexter14.9 m/hr
23755Kaleb Adkins00:55:2414-1921417 14.9 m/hr
24757Jim Anuszkiewicz00:55:3140-4964918 14.9 m/hr
25737Greg Hodder00:56:1350-5945119Dexter14.7 m/hr
26763Teresa Pfaff00:56:2340-491447 14.6 m/hr
27728Daniel Fernaneds00:57:1730-3953720Ann Arbor14.3 m/hr
28751Peter Bruder00:57:3050-5955921 14.3 m/hr
29742Robert Barhite00:58:0150-5965422 14.2 m/hr
30747Deb Beagle00:58:1240-492488 14.2 m/hr
31735Benjamin A Nabozny00:58:1350-5975923Grass Lake14.1 m/hr
32744Patrick Lewis01:00:3630-3963824Chelsea13.6 m/hr
33724Ryan Snyder01:01:3314-1931925Ypsilanti13.4 m/hr
34708Rob Mahan01:02:5050-5985726Chelsea13.1 m/hr
35746Katie Brickman01:03:3830-394369 13.0 m/hr
36703Paul Whitmer01:04:1460-6936227Dexter12.8 m/hr
37704Mary Kay Whitmer01:04:2360-6916010Dexter12.8 m/hr
38750Krista Jarvis01:07:5020-2912911 12.1 m/hr
39722David Melville01:11:1160-6946028Jackson11.6 m/hr
40709Lb Hilbert01:17:0260-6956729Manchester10.7 m/hr
41748Molly Olk01:17:1214-1911712 10.7 m/hr
42723Melissa Hinojosa01:21:5040-4934513Grand Ledge10.1 m/hr
43716Patricia Bruder01:22:0450-5935414Farmington Hills10.0 m/hr
44717John Bruder01:22:0450-5995830Farmington Hills10.0 m/hr
45738Krista Malinczak01:22:1740-4944215Tecumseh10.0 m/hr
46721Kathy Melville01:24:2250-5945616Jackson 9.8 m/hr
47730Rachelle Snyder01:50:4720-2922217Ypsilanti 7.4 m/hr
48734Michael Bugeaud02:11:4930-3973131Royal Oak 6.3 m/hr
Page 1 of 1 (48 items)

HyperLink Copyright (c) G Vincent, 2017